Airport ID:KN38
Update Time (UTC):24/02/2020 03:34
Wind Speed (Knots):5
Wind Direction (Magnetic):210
Temperature (°C):4
Dew Point (°C):-11
Humidity (%):35
Altimeter (inHg):29.99
Density Altitude (Feet):
Visibility (Miles):10+
Clouds (Hundreds of feet):OVC055
Present Weather:VCTS
METAR:METAR KN38 240330Z AUTO 21005KT 10SM VCTS BKN055 04/M11 A2999 RMK AO2 LTG DSNT NE

The data displayed is for advisory purposes only and is not to be used for flight planning or operations.

This page is not automatically refreshed. Reload the page to see current data.